Aurora, CO (80015)

4:35 AM MDT on September 19, 2014 (GMT -0600)
Piney Creek | Change Station
CLOSE
Current Station
Personal Weather Station
Location: Centennial, CO
Elevation: 5795 ft
Nearby Weather Stations

Elev 5795 ft 39.62 °N, 104.80 °W | Updated 0 second ago

Clear
Clear
59.1 °F
Feels Like 59.1 °F
N
0.0
Wind Variable Wind from SSE
Gusts 0.0 mph

Today
High -- | Low -- °F
--% Chance of Precip.
Yesterday
High -- | Low -- °F
Precip. -- in
6:44 AM 7:01 PM
Waning Crescent, 20% visible
Pressure 29.77 in
Visibility 10.0 miles
Clouds Clear
Dew Point 40 °F
Humidity 50%
Rainfall 0.00 in
Snow Depth 0 in , 0 in , 0 in
UV 0 out of 12
Pollen 7.70 out of 12
Air Quality Not available.
Flu Activity Not available.
METAR KAPA 190953Z 17011KT 10SM CLR 18/01 A3001 RMK AO2 SLP081 T01780006

More Conditions Fewer Conditions

Pressure 29.77 in
Visibility 10.0 miles
Clouds Clear
Dew Point 40 °F
Humidity 50%
Rainfall 0.00 in
Snow Depth 0 in , 0 in , 0 in
UV 0 out of 12
Pollen 7.70 out of 12
Air Quality Not available.
Flu Activity Not available.
METAR KAPA 190953Z 17011KT 10SM CLR 18/01 A3001 RMK AO2 SLP081 T01780006

More Conditions Fewer Conditions

10-Day Weather Forecast

Almanac

Astronomy

Sep. 19, 2014 Rise Set
Actual Time 6:44 AM MDT 7:01 PM MDT
Civil Twilight 6:17 AM MDT 7:27 PM MDT
Nautical Twilight 5:45 AM MDT 7:59 PM MDT
Astronomical Twilight 5:13 AM MDT 8:31 PM MDT
Moon 2:32 AM MDT 4:30 PM MDT
Length of Visible Light 13h 10m
Length of Day
12h 17m
Tomorrow will be 2m 35s shorter.
Waning Crescent, 20% of the Moon is Illuminated
Today
Waning Crescent
Sep 24
New
Oct 1
First Quarter
Oct 8
Full
Oct 15
Last Quarter

Today's Extremes

State Highs State Lows

Community

WunderPhotos

Upload Photos

1,754,585 photos uploaded!

Nearby

Air Quality

  Air Quality AQ Index Pollutant
Yesterday Moderate
OZONE
Yesterday Good
PM10
Friday Moderate
OZONE
Friday Good
PM2.5

Snow Depth

Station Depth Elevation
Jackwhacker Gulch 0 in 10960 ft
Cochetopa Pass 0 in 10020 ft
Independence Pass 187 in 10600 ft
Nast Lake 0 in 8700 ft
El Diente Peak 1 in 10200 ft

Earthquake Activity

City Distance Mag. Time & Date
No recent earthquake activity has been reported nearby.
Minimum magnitude displayed is 2.5.

Coastal Water Temperatures

Place Temperature
No Stations Reporting

Nearby Weather Stations